sensor_id;sensor_type;location;lat;lon;timestamp;temperature;humidity
19561;DHT22;9927;47.792;10.616;2023-10-13T03:00:39;12.60;99.90
19561;DHT22;9927;47.792;10.616;2023-10-13T03:03:08;12.70;99.90
19561;DHT22;9927;47.792;10.616;2023-10-13T03:05:35;12.70;99.90
19561;DHT22;9927;47.792;10.616;2023-10-13T03:08:06;12.70;99.90
19561;DHT22;9927;47.792;10.616;2023-10-13T03:10:33;12.70;99.90
19561;DHT22;9927;47.792;10.616;2023-10-13T03:13:00;12.70;99.90
19561;DHT22;9927;47.792;10.616;2023-10-13T03:15:31;12.80;99.90
19561;DHT22;9927;47.792;10.616;2023-10-13T03:17:58;12.80;99.90
19561;DHT22;9927;47.792;10.616;2023-10-13T03:20:25;12.50;99.90
19561;DHT22;9927;47.792;10.616;2023-10-13T03:22:59;12.40;99.90
19561;DHT22;9927;47.792;10.616;2023-10-13T03:25:26;12.40;99.90
19561;DHT22;9927;47.792;10.616;2023-10-13T03:27:58;12.40;99.90
19561;DHT22;9927;47.792;10.616;2023-10-13T03:30:28;12.30;99.90
19561;DHT22;9927;47.792;10.616;2023-10-13T03:33:03;12.30;99.90
19561;DHT22;9927;47.792;10.616;2023-10-13T03:35:35;12.30;99.90
19561;DHT22;9927;47.792;10.616;2023-10-13T03:38:10;12.40;99.90
19561;DHT22;9927;47.792;10.616;2023-10-13T03:40:49;12.40;99.90
19561;DHT22;9927;47.792;10.616;2023-10-13T03:43:23;12.40;99.90
19561;DHT22;9927;47.792;10.616;2023-10-13T03:45:51;12.40;99.90
19561;DHT22;9927;47.792;10.616;2023-10-13T03:48:35;12.30;99.90
19561;DHT22;9927;47.792;10.616;2023-10-13T03:51:19;12.40;99.90
19561;DHT22;9927;47.792;10.616;2023-10-13T03:53:47;12.20;99.90
19561;DHT22;9927;47.792;10.616;2023-10-13T03:56:22;12.20;99.90
19561;DHT22;9927;47.792;10.616;2023-10-13T03:58:59;12.00;99.90
19561;DHT22;9927;47.792;10.616;2023-10-13T04:01:28;11.90;99.90
19561;DHT22;9927;47.792;10.616;2023-10-13T04:03:59;11.80;99.90
19561;DHT22;9927;47.792;10.616;2023-10-13T04:06:47;11.80;99.90
19561;DHT22;9927;47.792;10.616;2023-10-13T04:09:21;11.80;99.90
19561;DHT22;9927;47.792;10.616;2023-10-13T04:12:03;11.70;99.90
19561;DHT22;9927;47.792;10.616;2023-10-13T04:14:32;11.70;99.90
19561;DHT22;9927;47.792;10.616;2023-10-13T04:17:18;11.80;99.90
19561;DHT22;9927;47.792;10.616;2023-10-13T04:19:57;11.70;99.90
19561;DHT22;9927;47.792;10.616;2023-10-13T04:22:38;11.60;99.90
19561;DHT22;9927;47.792;10.616;2023-10-13T04:25:25;11.60;99.90
19561;DHT22;9927;47.792;10.616;2023-10-13T04:28:19;11.60;99.90
19561;DHT22;9927;47.792;10.616;2023-10-13T04:31:02;11.70;99.90
19561;DHT22;9927;47.792;10.616;2023-10-13T04:33:39;11.70;99.90
19561;DHT22;9927;47.792;10.616;2023-10-13T04:36:20;11.70;99.90
19561;DHT22;9927;47.792;10.616;2023-10-13T04:39:03;11.70;99.90
19561;DHT22;9927;47.792;10.616;2023-10-13T04:41:35;11.80;99.90
19561;DHT22;9927;47.792;10.616;2023-10-13T04:44:13;11.80;99.90
19561;DHT22;9927;47.792;10.616;2023-10-13T04:47:00;11.70;99.90
19561;DHT22;9927;47.792;10.616;2023-10-13T04:49:29;11.70;99.90
19561;DHT22;9927;47.792;10.616;2023-10-13T04:52:17;11.60;99.90
19561;DHT22;9927;47.792;10.616;2023-10-13T04:55:03;11.60;99.90
19561;DHT22;9927;47.792;10.616;2023-10-13T04:57:43;11.50;99.90
19561;DHT22;9927;47.792;10.616;2023-10-13T05:00:16;11.50;99.90
19561;DHT22;9927;47.792;10.616;2023-10-13T05:02:45;11.40;99.90
19561;DHT22;9927;47.792;10.616;2023-10-13T05:05:28;11.40;99.90
19561;DHT22;9927;47.792;10.616;2023-10-13T05:08:33;11.40;99.90
19561;DHT22;9927;47.792;10.616;2023-10-13T05:11:19;11.30;99.90
19561;DHT22;9927;47.792;10.616;2023-10-13T05:14:05;11.20;99.90
19561;DHT22;9927;47.792;10.616;2023-10-13T05:16:51;11.20;99.90
19561;DHT22;9927;47.792;10.616;2023-10-13T05:19:37;11.20;99.90
19561;DHT22;9927;47.792;10.616;2023-10-13T05:22:23;11.20;99.90
19561;DHT22;9927;47.792;10.616;2023-10-13T05:25:09;11.20;99.90
19561;DHT22;9927;47.792;10.616;2023-10-13T05:27:55;11.30;99.90
19561;DHT22;9927;47.792;10.616;2023-10-13T05:30:59;11.30;99.90
19561;DHT22;9927;47.792;10.616;2023-10-13T05:33:45;11.30;99.90
19561;DHT22;9927;47.792;10.616;2023-10-13T05:36:31;11.40;99.90
19561;DHT22;9927;47.792;10.616;2023-10-13T05:39:17;11.50;99.90
19561;DHT22;9927;47.792;10.616;2023-10-13T05:42:03;11.40;99.90
19561;DHT22;9927;47.792;10.616;2023-10-13T05:44:49;11.10;99.90
19561;DHT22;9927;47.792;10.616;2023-10-13T05:47:35;11.00;99.90
19561;DHT22;9927;47.792;10.616;2023-10-13T05:50:06;10.90;99.90
19561;DHT22;9927;47.792;10.616;2023-10-13T05:52:49;11.00;99.90
19561;DHT22;9927;47.792;10.616;2023-10-13T05:55:31;11.10;99.90
19561;DHT22;9927;47.792;10.616;2023-10-13T05:58:17;11.20;99.90
19561;DHT22;9927;47.792;10.616;2023-10-13T06:01:03;11.30;99.90
19561;DHT22;9927;47.792;10.616;2023-10-13T06:03:49;11.30;99.90
19561;DHT22;9927;47.792;10.616;2023-10-13T06:06:35;11.40;99.90
19561;DHT22;9927;47.792;10.616;2023-10-13T06:09:23;11.50;99.90
19561;DHT22;9927;47.792;10.616;2023-10-13T06:12:09;11.60;99.90
19561;DHT22;9927;47.792;10.616;2023-10-13T06:14:55;11.50;99.90
19561;DHT22;9927;47.792;10.616;2023-10-13T06:17:41;11.60;99.90
19561;DHT22;9927;47.792;10.616;2023-10-13T06:20:27;11.70;99.90
19561;DHT22;9927;47.792;10.616;2023-10-13T06:23:13;11.70;99.90
19561;DHT22;9927;47.792;10.616;2023-10-13T06:25:59;11.90;99.90
19561;DHT22;9927;47.792;10.616;2023-10-13T06:28:44;12.10;99.90
19561;DHT22;9927;47.792;10.616;2023-10-13T06:31:13;12.20;99.90
19561;DHT22;9927;47.792;10.616;2023-10-13T06:33:50;12.40;99.90
19561;DHT22;9927;47.792;10.616;2023-10-13T06:36:17;12.50;99.90
19561;DHT22;9927;47.792;10.616;2023-10-13T06:38:45;12.60;99.90
19561;DHT22;9927;47.792;10.616;2023-10-13T06:41:22;12.80;99.90
19561;DHT22;9927;47.792;10.616;2023-10-13T06:43:58;13.20;99.90
19561;DHT22;9927;47.792;10.616;2023-10-13T06:46:28;13.70;99.90
19561;DHT22;9927;47.792;10.616;2023-10-13T06:48:56;14.10;99.90
19561;DHT22;9927;47.792;10.616;2023-10-13T06:51:27;14.50;99.90
19561;DHT22;9927;47.792;10.616;2023-10-13T06:53:58;14.80;99.90
19561;DHT22;9927;47.792;10.616;2023-10-13T06:56:33;14.90;99.90
19561;DHT22;9927;47.792;10.616;2023-10-13T06:59:06;15.00;99.90
19561;DHT22;9927;47.792;10.616;2023-10-13T07:01:34;15.10;99.90
19561;DHT22;9927;47.792;10.616;2023-10-13T07:04:12;15.10;99.90
19561;DHT22;9927;47.792;10.616;2023-10-13T07:06:43;15.20;99.90
19561;DHT22;9927;47.792;10.616;2023-10-13T07:09:17;15.00;99.90
19561;DHT22;9927;47.792;10.616;2023-10-13T07:12:04;15.00;99.90
19561;DHT22;9927;47.792;10.616;2023-10-13T07:14:34;14.90;99.90
19561;DHT22;9927;47.792;10.616;2023-10-13T07:17:05;15.10;99.90
19561;DHT22;9927;47.792;10.616;2023-10-13T07:19:34;15.10;99.90
19561;DHT22;9927;47.792;10.616;2023-10-13T07:22:04;15.20;99.90
19561;DHT22;9927;47.792;10.616;2023-10-13T07:24:49;15.30;99.90
19561;DHT22;9927;47.792;10.616;2023-10-13T07:27:21;15.30;99.90
19561;DHT22;9927;47.792;10.616;2023-10-13T07:29:53;15.40;99.90
19561;DHT22;9927;47.792;10.616;2023-10-13T07:32:41;15.50;99.90
19561;DHT22;9927;47.792;10.616;2023-10-13T07:35:19;15.70;99.90
19561;DHT22;9927;47.792;10.616;2023-10-13T07:37:47;15.80;99.90
19561;DHT22;9927;47.792;10.616;2023-10-13T07:40:21;16.00;99.90
19561;DHT22;9927;47.792;10.616;2023-10-13T07:42:56;16.00;99.90
19561;DHT22;9927;47.792;10.616;2023-10-13T07:45:36;16.10;99.90
19561;DHT22;9927;47.792;10.616;2023-10-13T07:48:04;16.20;99.90
19561;DHT22;9927;47.792;10.616;2023-10-13T07:50:40;16.20;99.90
19561;DHT22;9927;47.792;10.616;2023-10-13T07:53:07;16.30;99.90
19561;DHT22;9927;47.792;10.616;2023-10-13T07:55:50;16.40;99.90
19561;DHT22;9927;47.792;10.616;2023-10-13T07:58:23;16.60;99.20
19561;DHT22;9927;47.792;10.616;2023-10-13T08:00:52;16.70;97.90
19561;DHT22;9927;47.792;10.616;2023-10-13T08:03:28;16.80;97.70
19561;DHT22;9927;47.792;10.616;2023-10-13T08:06:13;17.10;96.60
19561;DHT22;9927;47.792;10.616;2023-10-13T08:08:41;17.30;96.30
19561;DHT22;9927;47.792;10.616;2023-10-13T08:11:14;17.60;96.90
19561;DHT22;9927;47.792;10.616;2023-10-13T08:13:55;17.80;96.60
19561;DHT22;9927;47.792;10.616;2023-10-13T08:17:01;18.20;93.50
19561;DHT22;9927;47.792;10.616;2023-10-13T08:19:31;18.60;94.00
19561;DHT22;9927;47.792;10.616;2023-10-13T08:22:13;18.90;93.60
19561;DHT22;9927;47.792;10.616;2023-10-13T08:24:48;19.10;93.50
19561;DHT22;9927;47.792;10.616;2023-10-13T08:27:20;19.30;92.90
19561;DHT22;9927;47.792;10.616;2023-10-13T08:30:23;19.70;91.40
19561;DHT22;9927;47.792;10.616;2023-10-13T08:32:54;19.70;91.80
19561;DHT22;9927;47.792;10.616;2023-10-13T08:35:22;19.80;91.80
19561;DHT22;9927;47.792;10.616;2023-10-13T08:38:03;19.80;91.50
19561;DHT22;9927;47.792;10.616;2023-10-13T08:40:51;19.90;91.00
19561;DHT22;9927;47.792;10.616;2023-10-13T08:44:02;20.00;90.20
19561;DHT22;9927;47.792;10.616;2023-10-13T08:46:32;20.10;90.30
19561;DHT22;9927;47.792;10.616;2023-10-13T08:49:19;20.10;90.50
19561;DHT22;9927;47.792;10.616;2023-10-13T08:51:50;20.10;90.30
19561;DHT22;9927;47.792;10.616;2023-10-13T08:54:38;20.10;90.10
19561;DHT22;9927;47.792;10.616;2023-10-13T08:57:13;20.10;90.10
19561;DHT22;9927;47.792;10.616;2023-10-13T09:00:00;20.20;88.90
19561;DHT22;9927;47.792;10.616;2023-10-13T09:02:48;20.20;89.10
19561;DHT22;9927;47.792;10.616;2023-10-13T09:05:48;20.30;88.40
19561;DHT22;9927;47.792;10.616;2023-10-13T09:08:34;20.40;86.50
19561;DHT22;9927;47.792;10.616;2023-10-13T09:11:12;20.40;85.90
19561;DHT22;9927;47.792;10.616;2023-10-13T09:13:40;20.50;87.10
19561;DHT22;9927;47.792;10.616;2023-10-13T09:16:15;20.60;85.80
19561;DHT22;9927;47.792;10.616;2023-10-13T09:19:17;20.70;85.00
19561;DHT22;9927;47.792;10.616;2023-10-13T09:21:45;20.80;86.40
19561;DHT22;9927;47.792;10.616;2023-10-13T09:24:15;20.80;87.10
19561;DHT22;9927;47.792;10.616;2023-10-13T09:26:50;20.90;86.80
19561;DHT22;9927;47.792;10.616;2023-10-13T09:29:23;21.00;86.40
19561;DHT22;9927;47.792;10.616;2023-10-13T09:32:02;21.10;86.20
19561;DHT22;9927;47.792;10.616;2023-10-13T09:34:31;21.20;84.90
19561;DHT22;9927;47.792;10.616;2023-10-13T09:37:02;21.30;84.50
19561;DHT22;9927;47.792;10.616;2023-10-13T09:39:34;21.30;84.20
19561;DHT22;9927;47.792;10.616;2023-10-13T09:42:07;21.40;84.10
19561;DHT22;9927;47.792;10.616;2023-10-13T09:44:38;21.40;85.00
19561;DHT22;9927;47.792;10.616;2023-10-13T09:47:10;21.60;82.10
19561;DHT22;9927;47.792;10.616;2023-10-13T09:49:45;21.70;83.90
19561;DHT22;9927;47.792;10.616;2023-10-13T09:52:17;21.70;84.30
19561;DHT22;9927;47.792;10.616;2023-10-13T09:55:21;21.80;85.40
19561;DHT22;9927;47.792;10.616;2023-10-13T09:57:57;21.90;83.60
19561;DHT22;9927;47.792;10.616;2023-10-13T10:00:29;22.20;83.30
19561;DHT22;9927;47.792;10.616;2023-10-13T10:03:08;22.20;82.80
19561;DHT22;9927;47.792;10.616;2023-10-13T10:05:58;22.30;84.50
19561;DHT22;9927;47.792;10.616;2023-10-13T10:08:34;22.40;83.10
19561;DHT22;9927;47.792;10.616;2023-10-13T10:11:33;22.40;83.50
19561;DHT22;9927;47.792;10.616;2023-10-13T10:14:15;22.50;80.30
19561;DHT22;9927;47.792;10.616;2023-10-13T10:17:16;22.60;82.00
19561;DHT22;9927;47.792;10.616;2023-10-13T10:19:51;22.70;78.10
19561;DHT22;9927;47.792;10.616;2023-10-13T10:24:58;22.70;81.20
19561;DHT22;9927;47.792;10.616;2023-10-13T10:27:30;22.70;79.10
19561;DHT22;9927;47.792;10.616;2023-10-13T10:29:59;22.80;81.00
19561;DHT22;9927;47.792;10.616;2023-10-13T10:32:38;22.80;77.50
19561;DHT22;9927;47.792;10.616;2023-10-13T10:35:10;22.90;76.20
19561;DHT22;9927;47.792;10.616;2023-10-13T10:37:47;23.00;73.20
19561;DHT22;9927;47.792;10.616;2023-10-13T10:40:19;23.10;71.80
19561;DHT22;9927;47.792;10.616;2023-10-13T10:43:22;23.10;69.60
19561;DHT22;9927;47.792;10.616;2023-10-13T10:46:00;23.20;70.80
19561;DHT22;9927;47.792;10.616;2023-10-13T10:48:27;23.20;71.10
19561;DHT22;9927;47.792;10.616;2023-10-13T10:51:05;23.30;64.70
19561;DHT22;9927;47.792;10.616;2023-10-13T10:53:53;23.40;67.70
19561;DHT22;9927;47.792;10.616;2023-10-13T10:56:24;23.50;69.30
19561;DHT22;9927;47.792;10.616;2023-10-13T10:59:12;23.40;66.70
19561;DHT22;9927;47.792;10.616;2023-10-13T11:01:47;23.50;68.00
19561;DHT22;9927;47.792;10.616;2023-10-13T11:04:15;23.60;66.10
19561;DHT22;9927;47.792;10.616;2023-10-13T11:06:51;23.60;64.40
19561;DHT22;9927;47.792;10.616;2023-10-13T11:09:31;23.70;65.50
19561;DHT22;9927;47.792;10.616;2023-10-13T11:12:12;23.80;64.40
19561;DHT22;9927;47.792;10.616;2023-10-13T11:14:44;23.80;64.50
19561;DHT22;9927;47.792;10.616;2023-10-13T11:17:20;23.80;67.60
19561;DHT22;9927;47.792;10.616;2023-10-13T11:19:56;23.80;64.90
19561;DHT22;9927;47.792;10.616;2023-10-13T11:22:23;23.90;67.60
19561;DHT22;9927;47.792;10.616;2023-10-13T11:25:04;24.00;64.40
19561;DHT22;9927;47.792;10.616;2023-10-13T11:27:39;24.00;62.40
19561;DHT22;9927;47.792;10.616;2023-10-13T11:30:19;24.00;67.10
19561;DHT22;9927;47.792;10.616;2023-10-13T11:35:24;24.10;62.10
19561;DHT22;9927;47.792;10.616;2023-10-13T11:37:52;24.00;62.90
19561;DHT22;9927;47.792;10.616;2023-10-13T11:40:40;24.20;60.70
19561;DHT22;9927;47.792;10.616;2023-10-13T11:43:11;24.10;61.30
19561;DHT22;9927;47.792;10.616;2023-10-13T11:45:41;24.20;61.20
19561;DHT22;9927;47.792;10.616;2023-10-13T11:48:27;24.20;62.40
19561;DHT22;9927;47.792;10.616;2023-10-13T11:51:05;24.20;60.70
19561;DHT22;9927;47.792;10.616;2023-10-13T11:53:36;24.20;59.30
19561;DHT22;9927;47.792;10.616;2023-10-13T11:56:04;24.20;60.50
19561;DHT22;9927;47.792;10.616;2023-10-13T11:58:40;24.30;61.30
19561;DHT22;9927;47.792;10.616;2023-10-13T12:01:08;24.30;61.20
19561;DHT22;9927;47.792;10.616;2023-10-13T12:03:41;24.30;62.10
19561;DHT22;9927;47.792;10.616;2023-10-13T12:06:28;24.30;63.70
19561;DHT22;9927;47.792;10.616;2023-10-13T12:09:09;24.30;66.60
19561;DHT22;9927;47.792;10.616;2023-10-13T12:11:47;24.20;66.10
19561;DHT22;9927;47.792;10.616;2023-10-13T12:14:15;24.20;67.50
19561;DHT22;9927;47.792;10.616;2023-10-13T12:16:49;24.20;67.60
19561;DHT22;9927;47.792;10.616;2023-10-13T12:19:20;24.20;67.50
19561;DHT22;9927;47.792;10.616;2023-10-13T12:21:51;24.30;65.70
19561;DHT22;9927;47.792;10.616;2023-10-13T12:24:26;24.30;66.40
19561;DHT22;9927;47.792;10.616;2023-10-13T12:27:00;24.30;64.50
19561;DHT22;9927;47.792;10.616;2023-10-13T12:29:27;24.30;63.20
19561;DHT22;9927;47.792;10.616;2023-10-13T12:31:56;24.30;65.40
19561;DHT22;9927;47.792;10.616;2023-10-13T12:34:37;24.30;66.80
19561;DHT22;9927;47.792;10.616;2023-10-13T12:37:27;24.30;68.00
19561;DHT22;9927;47.792;10.616;2023-10-13T12:40:08;24.20;65.40
19561;DHT22;9927;47.792;10.616;2023-10-13T12:42:55;24.30;63.50
19561;DHT22;9927;47.792;10.616;2023-10-13T12:45:44;24.20;64.80
19561;DHT22;9927;47.792;10.616;2023-10-13T12:48:31;24.20;62.60
19561;DHT22;9927;47.792;10.616;2023-10-13T12:51:17;24.30;65.00
19561;DHT22;9927;47.792;10.616;2023-10-13T12:53:52;24.30;65.40
19561;DHT22;9927;47.792;10.616;2023-10-13T12:56:20;24.20;65.80
19561;DHT22;9927;47.792;10.616;2023-10-13T12:58:53;24.20;66.60
19561;DHT22;9927;47.792;10.616;2023-10-13T13:01:22;24.20;64.30
19561;DHT22;9927;47.792;10.616;2023-10-13T13:03:52;24.20;64.90
19561;DHT22;9927;47.792;10.616;2023-10-13T13:06:24;24.20;64.10
19561;DHT22;9927;47.792;10.616;2023-10-13T13:09:01;24.20;65.60
19561;DHT22;9927;47.792;10.616;2023-10-13T13:11:28;24.20;65.20
19561;DHT22;9927;47.792;10.616;2023-10-13T13:13:57;24.20;65.70
19561;DHT22;9927;47.792;10.616;2023-10-13T13:16:24;24.30;64.20
19561;DHT22;9927;47.792;10.616;2023-10-13T13:18:52;24.20;65.20
19561;DHT22;9927;47.792;10.616;2023-10-13T13:21:22;24.20;64.70
19561;DHT22;9927;47.792;10.616;2023-10-13T13:23:52;24.30;65.70
19561;DHT22;9927;47.792;10.616;2023-10-13T13:26:23;24.30;66.40
19561;DHT22;9927;47.792;10.616;2023-10-13T13:28:50;24.30;64.00
19561;DHT22;9927;47.792;10.616;2023-10-13T13:31:22;24.30;66.60
19561;DHT22;9927;47.792;10.616;2023-10-13T13:33:56;24.30;64.10
19561;DHT22;9927;47.792;10.616;2023-10-13T13:36:23;24.30;67.00
19561;DHT22;9927;47.792;10.616;2023-10-13T13:38:51;24.30;66.60
19561;DHT22;9927;47.792;10.616;2023-10-13T13:41:21;24.20;66.70
19561;DHT22;9927;47.792;10.616;2023-10-13T13:43:50;24.30;64.80
19561;DHT22;9927;47.792;10.616;2023-10-13T13:46:18;24.20;66.20
19561;DHT22;9927;47.792;10.616;2023-10-13T13:48:46;24.20;65.40
19561;DHT22;9927;47.792;10.616;2023-10-13T13:51:16;24.20;65.60
19561;DHT22;9927;47.792;10.616;2023-10-13T13:53:46;24.10;69.60
19561;DHT22;9927;47.792;10.616;2023-10-13T13:56:15;24.00;68.30
19561;DHT22;9927;47.792;10.616;2023-10-13T13:58:50;24.10;67.10
19561;DHT22;9927;47.792;10.616;2023-10-13T14:01:18;24.10;68.30
19561;DHT22;9927;47.792;10.616;2023-10-13T14:03:47;24.10;67.90
19561;DHT22;9927;47.792;10.616;2023-10-13T14:06:19;24.00;69.50
19561;DHT22;9927;47.792;10.616;2023-10-13T14:08:57;24.00;69.00
19561;DHT22;9927;47.792;10.616;2023-10-13T14:11:29;24.00;68.30
19561;DHT22;9927;47.792;10.616;2023-10-13T14:14:15;24.00;68.50
19561;DHT22;9927;47.792;10.616;2023-10-13T14:16:52;24.00;67.90
19561;DHT22;9927;47.792;10.616;2023-10-13T14:19:20;24.00;68.50
19561;DHT22;9927;47.792;10.616;2023-10-13T14:21:58;24.00;66.90
19561;DHT22;9927;47.792;10.616;2023-10-13T14:24:26;24.00;68.30
19561;DHT22;9927;47.792;10.616;2023-10-13T14:27:02;24.00;67.40
19561;DHT22;9927;47.792;10.616;2023-10-13T14:29:39;23.90;70.10
19561;DHT22;9927;47.792;10.616;2023-10-13T14:32:14;23.90;69.00
19561;DHT22;9927;47.792;10.616;2023-10-13T14:34:45;23.90;69.20
19561;DHT22;9927;47.792;10.616;2023-10-13T14:37:13;23.90;68.30
19561;DHT22;9927;47.792;10.616;2023-10-13T14:39:41;23.80;69.00
19561;DHT22;9927;47.792;10.616;2023-10-13T14:42:08;23.80;68.30
19561;DHT22;9927;47.792;10.616;2023-10-13T14:44:35;23.80;68.70
19561;DHT22;9927;47.792;10.616;2023-10-13T14:47:04;23.70;68.30
19561;DHT22;9927;47.792;10.616;2023-10-13T14:49:33;23.80;69.20
19561;DHT22;9927;47.792;10.616;2023-10-13T14:52:02;23.70;68.80
19561;DHT22;9927;47.792;10.616;2023-10-13T14:54:29;23.70;69.20
19561;DHT22;9927;47.792;10.616;2023-10-13T14:57:01;23.60;69.20
19561;DHT22;9927;47.792;10.616;2023-10-13T14:59:29;23.60;69.10
19561;DHT22;9927;47.792;10.616;2023-10-13T15:02:06;23.60;70.10
19561;DHT22;9927;47.792;10.616;2023-10-13T15:04:34;23.60;70.10
19561;DHT22;9927;47.792;10.616;2023-10-13T15:07:01;23.60;70.80
19561;DHT22;9927;47.792;10.616;2023-10-13T15:09:30;23.50;70.00
19561;DHT22;9927;47.792;10.616;2023-10-13T15:11:57;23.40;70.50
19561;DHT22;9927;47.792;10.616;2023-10-13T15:14:24;23.40;70.10
19561;DHT22;9927;47.792;10.616;2023-10-13T15:16:52;23.30;70.30
19561;DHT22;9927;47.792;10.616;2023-10-13T15:19:19;23.20;71.00
19561;DHT22;9927;47.792;10.616;2023-10-13T15:21:47;23.10;71.90
19561;DHT22;9927;47.792;10.616;2023-10-13T15:24:18;23.10;72.40
19561;DHT22;9927;47.792;10.616;2023-10-13T15:26:49;23.00;71.00
19561;DHT22;9927;47.792;10.616;2023-10-13T15:29:17;22.90;72.60
19561;DHT22;9927;47.792;10.616;2023-10-13T15:31:45;22.80;71.60
19561;DHT22;9927;47.792;10.616;2023-10-13T15:34:26;22.80;72.40
19561;DHT22;9927;47.792;10.616;2023-10-13T15:36:55;22.70;72.20
19561;DHT22;9927;47.792;10.616;2023-10-13T15:39:23;22.70;72.40
19561;DHT22;9927;47.792;10.616;2023-10-13T15:41:51;22.70;72.00
19561;DHT22;9927;47.792;10.616;2023-10-13T15:44:22;22.60;71.50
19561;DHT22;9927;47.792;10.616;2023-10-13T15:46:56;22.50;72.10
19561;DHT22;9927;47.792;10.616;2023-10-13T15:49:26;22.50;72.70
19561;DHT22;9927;47.792;10.616;2023-10-13T15:51:56;22.30;72.50
19561;DHT22;9927;47.792;10.616;2023-10-13T15:54:24;22.30;72.40
19561;DHT22;9927;47.792;10.616;2023-10-13T15:56:51;22.20;73.00
19561;DHT22;9927;47.792;10.616;2023-10-13T15:59:19;22.10;73.40
19561;DHT22;9927;47.792;10.616;2023-10-13T16:01:46;22.00;73.70
19561;DHT22;9927;47.792;10.616;2023-10-13T16:04:14;21.90;74.20
19561;DHT22;9927;47.792;10.616;2023-10-13T16:06:44;21.80;74.50
19561;DHT22;9927;47.792;10.616;2023-10-13T16:09:14;21.80;75.50
19561;DHT22;9927;47.792;10.616;2023-10-13T16:11:43;21.60;76.30
19561;DHT22;9927;47.792;10.616;2023-10-13T16:14:10;21.60;76.40
19561;DHT22;9927;47.792;10.616;2023-10-13T16:16:44;21.50;76.90
19561;DHT22;9927;47.792;10.616;2023-10-13T16:19:15;21.40;77.40
19561;DHT22;9927;47.792;10.616;2023-10-13T16:21:44;21.30;77.40
19561;DHT22;9927;47.792;10.616;2023-10-13T16:24:14;21.20;77.90
19561;DHT22;9927;47.792;10.616;2023-10-13T16:26:49;21.00;77.90
19561;DHT22;9927;47.792;10.616;2023-10-13T16:29:17;20.90;78.40
19561;DHT22;9927;47.792;10.616;2023-10-13T16:31:47;20.80;78.70
19561;DHT22;9927;47.792;10.616;2023-10-13T16:34:16;20.70;79.90
19561;DHT22;9927;47.792;10.616;2023-10-13T16:36:45;20.60;80.30
19561;DHT22;9927;47.792;10.616;2023-10-13T16:39:14;20.50;79.60
19561;DHT22;9927;47.792;10.616;2023-10-13T16:41:43;20.40;79.90
19561;DHT22;9927;47.792;10.616;2023-10-13T16:44:14;20.30;80.20
19561;DHT22;9927;47.792;10.616;2023-10-13T16:46:43;20.20;80.30
19561;DHT22;9927;47.792;10.616;2023-10-13T16:49:10;20.10;80.80
19561;DHT22;9927;47.792;10.616;2023-10-13T16:51:38;20.00;80.50
19561;DHT22;9927;47.792;10.616;2023-10-13T16:54:07;19.90;81.00
19561;DHT22;9927;47.792;10.616;2023-10-13T16:56:35;19.80;81.40
19561;DHT22;9927;47.792;10.616;2023-10-13T16:59:05;19.80;81.20
19561;DHT22;9927;47.792;10.616;2023-10-13T17:01:34;19.70;81.30
19561;DHT22;9927;47.792;10.616;2023-10-13T17:04:02;19.60;81.30
19561;DHT22;9927;47.792;10.616;2023-10-13T17:06:32;19.50;81.50
19561;DHT22;9927;47.792;10.616;2023-10-13T17:09:00;19.40;81.40
19561;DHT22;9927;47.792;10.616;2023-10-13T17:11:31;19.30;81.30
19561;DHT22;9927;47.792;10.616;2023-10-13T17:13:58;19.20;81.80
19561;DHT22;9927;47.792;10.616;2023-10-13T17:16:26;19.10;81.90
19561;DHT22;9927;47.792;10.616;2023-10-13T17:18:53;19.10;81.80
19561;DHT22;9927;47.792;10.616;2023-10-13T17:21:23;19.00;81.70
19561;DHT22;9927;47.792;10.616;2023-10-13T17:24:00;19.00;81.70
19561;DHT22;9927;47.792;10.616;2023-10-13T17:26:28;18.90;81.50
19561;DHT22;9927;47.792;10.616;2023-10-13T17:28:58;18.90;81.60
19561;DHT22;9927;47.792;10.616;2023-10-13T17:31:26;18.80;81.70
19561;DHT22;9927;47.792;10.616;2023-10-13T17:33:59;18.70;81.80
19561;DHT22;9927;47.792;10.616;2023-10-13T17:36:27;18.70;82.20
19561;DHT22;9927;47.792;10.616;2023-10-13T17:38:56;18.60;82.10
19561;DHT22;9927;47.792;10.616;2023-10-13T17:41:24;18.60;82.80
19561;DHT22;9927;47.792;10.616;2023-10-13T17:43:52;18.50;83.60
19561;DHT22;9927;47.792;10.616;2023-10-13T17:46:20;18.30;86.80
19561;DHT22;9927;47.792;10.616;2023-10-13T17:48:50;18.20;87.10
19561;DHT22;9927;47.792;10.616;2023-10-13T17:51:17;18.00;87.50
19561;DHT22;9927;47.792;10.616;2023-10-13T17:53:44;17.80;89.10
19561;DHT22;9927;47.792;10.616;2023-10-13T17:56:13;17.60;89.40
19561;DHT22;9927;47.792;10.616;2023-10-13T17:58:43;17.50;89.40
19561;DHT22;9927;47.792;10.616;2023-10-13T18:01:15;17.40;89.90
19561;DHT22;9927;47.792;10.616;2023-10-13T18:03:51;17.20;90.10
19561;DHT22;9927;47.792;10.616;2023-10-13T18:06:22;17.10;90.40
19561;DHT22;9927;47.792;10.616;2023-10-13T18:08:52;16.90;90.30
19561;DHT22;9927;47.792;10.616;2023-10-13T18:11:22;16.80;90.40
19561;DHT22;9927;47.792;10.616;2023-10-13T18:13:55;16.80;90.20
19561;DHT22;9927;47.792;10.616;2023-10-13T18:16:23;16.70;90.40
19561;DHT22;9927;47.792;10.616;2023-10-13T18:18:53;16.70;90.70
19561;DHT22;9927;47.792;10.616;2023-10-13T18:21:22;16.60;91.00
19561;DHT22;9927;47.792;10.616;2023-10-13T18:23:51;16.50;91.00
19561;DHT22;9927;47.792;10.616;2023-10-13T18:26:19;16.50;91.10
19561;DHT22;9927;47.792;10.616;2023-10-13T18:28:49;16.30;91.20
19561;DHT22;9927;47.792;10.616;2023-10-13T18:31:17;16.30;91.60
19561;DHT22;9927;47.792;10.616;2023-10-13T18:33:45;16.20;91.80
19561;DHT22;9927;47.792;10.616;2023-10-13T18:36:17;16.20;92.00
19561;DHT22;9927;47.792;10.616;2023-10-13T18:38:47;16.10;92.20
19561;DHT22;9927;47.792;10.616;2023-10-13T18:41:15;16.00;92.40
19561;DHT22;9927;47.792;10.616;2023-10-13T18:43:46;15.90;92.60
19561;DHT22;9927;47.792;10.616;2023-10-13T18:46:14;15.80;92.60
19561;DHT22;9927;47.792;10.616;2023-10-13T18:48:45;15.70;92.20
19561;DHT22;9927;47.792;10.616;2023-10-13T18:51:15;15.70;92.30
19561;DHT22;9927;47.792;10.616;2023-10-13T18:53:47;15.70;92.30
19561;DHT22;9927;47.792;10.616;2023-10-13T18:56:17;15.70;92.50
19561;DHT22;9927;47.792;10.616;2023-10-13T18:58:52;15.60;92.30
19561;DHT22;9927;47.792;10.616;2023-10-13T19:01:27;15.60;92.40
19561;DHT22;9927;47.792;10.616;2023-10-13T19:03:57;15.60;92.50
19561;DHT22;9927;47.792;10.616;2023-10-13T19:06:29;15.50;92.70
19561;DHT22;9927;47.792;10.616;2023-10-13T19:09:01;15.40;93.00
19561;DHT22;9927;47.792;10.616;2023-10-13T19:11:38;15.30;92.90
19561;DHT22;9927;47.792;10.616;2023-10-13T19:14:10;15.20;93.10
19561;DHT22;9927;47.792;10.616;2023-10-13T19:16:41;15.10;93.50
19561;DHT22;9927;47.792;10.616;2023-10-13T19:19:09;15.00;93.60
19561;DHT22;9927;47.792;10.616;2023-10-13T19:21:36;14.90;93.80